Time;durP1;ratioP1;P1;durP2;ratioP2;P2;SDS_P1;SDS_P2;PMS_P1;PMS_P2;Temp;Humidity;BMP_temperature;BMP_pressure;BME280_temperature;BME280_humidity;BME280_pressure;Samples;Min_cycle;Max_cycle;Signal;HPM_P1;HPM_P2
2023/03/12 00:02:24;;;;;;;19.13;6.17;;;;;;;10.81;39.04;101151.38;5066504;28;20039;-69
2023/03/12 00:04:49;;;;;;;10.67;5.47;;;;;;;11.00;38.37;101153.03;5067504;28;20028;-69
2023/03/12 00:07:15;;;;;;;14.30;5.77;;;;;;;11.30;38.43;101153.66;5067282;28;20481;-69
2023/03/12 00:09:40;;;;;;;11.87;5.60;;;;;;;10.73;38.75;101161.00;5065950;28;20090;-70
2023/03/12 00:12:06;;;;;;;17.17;5.57;;;;;;;11.22;38.17;101144.13;5084316;28;20115;-70
2023/03/12 00:14:31;;;;;;;11.93;5.63;;;;;;;11.09;38.99;101151.22;5068753;28;20044;-70
2023/03/12 00:16:57;;;;;;;9.90;5.20;;;;;;;11.50;38.29;101148.25;5063832;28;20024;-69
2023/03/12 00:19:22;;;;;;;20.53;7.20;;;;;;;10.78;39.61;101164.47;5068266;28;20032;-69
2023/03/12 00:21:47;;;;;;;9.60;5.60;;;;;;;11.49;38.33;101161.38;5067710;28;20101;-71
2023/03/12 00:24:13;;;;;;;13.93;5.53;;;;;;;11.96;37.79;101157.44;5066786;28;20024;-72
2023/03/12 00:26:38;;;;;;;14.30;5.33;;;;;;;12.04;37.19;101147.75;5066299;28;20040;-71
2023/03/12 00:29:04;;;;;;;12.10;6.30;;;;;;;12.19;37.37;101140.63;5066712;28;20391;-69
2023/03/12 00:31:31;;;;;;;11.10;5.20;;;;;;;12.07;37.29;101135.53;5065827;28;20470;-69
2023/03/12 00:33:57;;;;;;;15.37;6.10;;;;;;;11.57;38.08;101125.53;5067162;28;20511;-69
2023/03/12 00:36:26;;;;;;;11.03;5.20;;;;;;;11.83;37.55;101124.41;5067535;28;20056;-69
2023/03/12 00:38:52;;;;;;;8.67;5.30;;;;;;;11.40;38.82;101115.19;5065023;28;20055;-70
2023/03/12 00:41:18;;;;;;;9.10;5.07;;;;;;;11.28;38.94;101118.78;5067919;28;20020;-71
2023/03/12 00:43:45;;;;;;;9.70;5.57;;;;;;;11.79;38.00;101125.31;5066272;28;20024;-69
2023/03/12 00:46:11;;;;;;;11.33;5.07;;;;;;;11.89;38.20;101127.78;5067912;28;20021;-69
2023/03/12 00:48:36;;;;;;;12.23;5.47;;;;;;;12.58;37.15;101124.41;5067220;28;20034;-69
2023/03/12 00:51:02;;;;;;;9.30;4.60;;;;;;;12.02;37.88;101123.34;5071568;28;20769;-70
2023/03/12 00:53:27;;;;;;;10.33;4.90;;;;;;;11.58;38.69;101118.53;5070278;28;20082;-69
2023/03/12 00:55:52;;;;;;;10.97;5.17;;;;;;;11.96;38.28;101110.28;5070646;28;20498;-69
2023/03/12 00:58:18;;;;;;;11.97;5.53;;;;;;;12.00;38.19;101104.13;5071945;28;20036;-69
2023/03/12 01:00:43;;;;;;;10.07;5.03;;;;;;;11.40;38.83;101099.47;5070945;28;20036;-69
2023/03/12 01:03:08;;;;;;;10.67;4.80;;;;;;;11.95;38.19;101103.34;5070557;28;20039;-70
2023/03/12 01:05:36;;;;;;;8.87;4.67;;;;;;;12.05;38.40;101107.56;5070913;28;20036;-70
2023/03/12 01:08:03;;;;;;;12.33;4.50;;;;;;;11.49;39.00;101106.41;5070229;28;20025;-69
2023/03/12 01:10:29;;;;;;;9.60;4.33;;;;;;;12.11;37.99;101116.25;5071934;28;20036;-70
2023/03/12 01:12:55;;;;;;;12.57;5.07;;;;;;;12.05;37.68;101123.28;5069354;28;20048;-70
2023/03/12 01:15:20;;;;;;;8.93;4.40;;;;;;;12.43;37.54;101117.59;5070519;28;20024;-69
2023/03/12 01:17:46;;;;;;;10.53;5.00;;;;;;;12.42;36.98;101118.47;5069058;28;20093;-70
2023/03/12 01:20:11;;;;;;;17.97;5.10;;;;;;;11.75;39.14;101115.75;5068056;28;20092;-69
2023/03/12 01:22:37;;;;;;;8.60;4.43;;;;;;;12.25;38.29;101109.06;5070012;28;20523;-69
2023/03/12 01:25:03;;;;;;;13.47;4.50;;;;;;;11.90;38.82;101102.50;5071089;28;20090;-70
2023/03/12 01:27:28;;;;;;;7.57;4.67;;;;;;;11.88;38.75;101099.00;5070149;28;20384;-70
2023/03/12 01:29:54;;;;;;;7.70;4.83;;;;;;;10.78;40.64;101093.88;5066977;28;20142;-70
2023/03/12 01:32:20;;;;;;;11.20;4.73;;;;;;;11.16;40.01;101092.72;5070231;28;20063;-70
2023/03/12 01:34:46;;;;;;;12.10;5.03;;;;;;;11.56;40.08;101096.75;5070537;28;20059;-69
2023/03/12 01:37:11;;;;;;;9.97;4.80;;;;;;;11.89;39.01;101092.88;5069182;28;20032;-70
2023/03/12 01:39:36;;;;;;;9.93;4.73;;;;;;;11.77;39.69;101090.41;5067032;28;20035;-69
2023/03/12 01:42:02;;;;;;;7.93;4.33;;;;;;;11.65;39.84;101079.19;5070763;28;20033;-69
2023/03/12 01:44:28;;;;;;;9.93;4.97;;;;;;;12.21;38.88;101070.69;5069204;28;20487;-69
2023/03/12 01:46:53;;;;;;;9.77;4.53;;;;;;;11.26;40.70;101070.81;5067223;28;20044;-70
2023/03/12 01:49:27;;;;;;;11.63;4.67;;;;;;;10.89;41.58;101075.50;5069179;28;20028;-69
2023/03/12 01:52:13;;;;;;;11.00;4.93;;;;;;;11.51;40.81;101073.22;5069668;28;20024;-70
2023/03/12 01:54:44;;;;;;;10.60;4.73;;;;;;;10.68;42.09;101070.41;5069897;28;20039;-69
2023/03/12 01:57:23;;;;;;;11.57;5.00;;;;;;;10.67;42.26;101068.69;5067849;28;20112;-69
2023/03/12 02:00:13;;;;;;;8.27;5.37;;;;;;;11.50;40.78;101061.03;5069055;28;20032;-70
2023/03/12 02:02:40;;;;;;;9.80;5.27;;;;;;;11.05;41.48;101050.09;5071006;28;20029;-69
2023/03/12 02:05:30;;;;;;;11.70;5.13;;;;;;;11.58;41.24;101043.47;5071117;28;20039;-69
2023/03/12 02:07:56;;;;;;;13.83;5.23;;;;;;;11.22;41.15;101040.34;5086200;28;20036;-69
2023/03/12 02:10:22;;;;;;;10.37;4.80;;;;;;;11.80;40.37;101033.63;5069441;28;20433;-70
2023/03/12 02:12:48;;;;;;;9.73;5.07;;;;;;;10.61;42.54;101028.66;5054667;28;20107;-70
2023/03/12 02:15:13;;;;;;;9.27;4.90;;;;;;;11.47;41.79;101024.38;5056043;28;20495;-70
2023/03/12 02:17:39;;;;;;;5.97;3.83;;;;;;;10.71;41.76;101021.59;5067684;28;20035;-70
2023/03/12 02:20:21;;;;;;;7.73;4.40;;;;;;;11.15;41.75;101015.97;5066550;28;20555;-69
2023/03/12 02:23:05;;;;;;;9.37;4.00;;;;;;;10.97;41.95;101014.41;5068643;28;20063;-70
2023/03/12 02:25:36;;;;;;;8.37;3.60;;;;;;;10.48;42.35;101006.94;5070012;28;20039;-69
2023/03/12 02:28:05;;;;;;;9.70;3.87;;;;;;;10.04;43.77;101014.13;5070319;28;20055;-69
2023/03/12 02:30:32;;;;;;;9.37;3.47;;;;;;;10.16;42.92;101008.81;5063246;28;20369;-69
2023/03/12 02:33:01;;;;;;;8.67;3.43;;;;;;;10.27;42.01;101000.06;5057305;28;20072;-69
2023/03/12 02:35:26;;;;;;;8.17;3.10;;;;;;;11.06;40.83;100996.88;5069477;28;20491;-69
2023/03/12 02:37:54;;;;;;;7.03;3.40;;;;;;;11.30;39.94;101003.63;5068156;28;20020;-70
2023/03/12 02:40:25;;;;;;;5.90;3.63;;;;;;;10.98;40.84;101005.69;5070150;28;20028;-69
2023/03/12 02:42:51;;;;;;;7.70;3.70;;;;;;;11.59;39.59;101008.53;5067616;28;20036;-69
2023/03/12 02:45:17;;;;;;;6.80;2.93;;;;;;;12.27;38.73;100999.88;5067766;28;20033;-69
2023/03/12 02:47:43;;;;;;;7.33;3.23;;;;;;;12.33;38.59;101002.38;5068908;28;20049;-70
2023/03/12 02:50:09;;;;;;;6.17;3.10;;;;;;;12.29;38.66;101000.69;5068298;28;20036;-69
2023/03/12 02:52:36;;;;;;;11.67;3.33;;;;;;;11.51;40.46;100999.91;5066494;28;20468;-69
2023/03/12 02:55:01;;;;;;;6.73;3.27;;;;;;;11.40;40.84;100993.94;5067583;28;20060;-69
2023/03/12 02:57:27;;;;;;;9.67;3.17;;;;;;;11.00;41.21;100993.47;5070598;28;20480;-70
2023/03/12 02:59:52;;;;;;;7.67;3.33;;;;;;;11.49;41.34;100983.38;5067202;28;20028;-70
2023/03/12 03:02:17;;;;;;;9.47;3.20;;;;;;;11.48;41.81;100979.88;5067820;28;20074;-70
2023/03/12 03:04:43;;;;;;;12.80;3.30;;;;;;;11.58;42.03;100975.41;5068043;28;20408;-70
2023/03/12 03:07:08;;;;;;;7.93;3.27;;;;;;;10.89;43.12;100974.38;5067966;28;20028;-70
2023/03/12 03:09:33;;;;;;;5.00;3.30;;;;;;;9.67;46.15;100972.50;5069000;28;20025;-70
2023/03/12 03:11:59;;;;;;;10.03;3.50;;;;;;;10.59;44.37;100975.50;5070461;28;20059;-70
2023/03/12 03:14:24;;;;;;;6.23;3.17;;;;;;;10.17;44.93;100970.53;5065116;28;20423;-71
2023/03/12 03:16:50;;;;;;;5.37;2.80;;;;;;;9.50;46.89;100968.22;5069278;28;20036;-72
2023/03/12 03:19:15;;;;;;;7.37;3.03;;;;;;;9.50;47.57;100957.78;5068888;28;20060;-70
2023/03/12 03:21:42;;;;;;;14.40;3.47;;;;;;;9.71;48.23;100942.06;5066222;28;20052;-70
2023/03/12 03:24:08;;;;;;;10.63;3.10;;;;;;;10.13;46.25;100945.31;5068810;28;20055;-70
2023/03/12 03:26:33;;;;;;;7.93;3.47;;;;;;;9.90;47.49;100937.59;5067001;28;20481;-70
2023/03/12 03:28:58;;;;;;;5.90;3.50;;;;;;;9.73;47.34;100950.75;5069840;28;20101;-71
2023/03/12 03:31:24;;;;;;;13.30;3.77;;;;;;;9.68;48.10;100938.59;5068107;28;20028;-70
2023/03/12 03:33:50;;;;;;;13.73;3.90;;;;;;;9.78;48.12;100928.09;5065082;28;20036;-70
2023/03/12 03:36:15;;;;;;;11.70;3.30;;;;;;;9.00;50.79;100927.50;5068323;28;20032;-70
2023/03/12 03:38:47;;;;;;;14.10;3.60;;;;;;;9.98;49.66;100913.19;5067971;28;20657;-70
2023/03/12 03:41:14;;;;;;;9.98;3.30;;;;;;;9.33;50.41;100921.31;5067250;28;21445;-71
2023/03/12 03:43:39;;;;;;;7.53;3.87;;;;;;;9.33;50.28;100920.47;5067638;28;20115;-72
2023/03/12 03:46:05;;;;;;;10.23;3.80;;;;;;;10.59;47.90;100905.81;5067361;28;20952;-69
2023/03/12 03:48:31;;;;;;;8.33;3.10;;;;;;;9.36;50.46;100911.78;5066990;28;20070;-71
2023/03/12 03:51:00;;;;;;;10.63;3.67;;;;;;;8.76;52.91;100897.13;5067926;28;20103;-70
2023/03/12 03:53:26;;;;;;;14.20;3.93;;;;;;;9.07;52.89;100899.69;5068179;28;20028;-70
2023/03/12 03:55:51;;;;;;;8.47;3.73;;;;;;;9.61;50.54;100886.41;5067540;28;20438;-69
2023/03/12 03:58:16;;;;;;;7.63;4.20;;;;;;;9.23;51.57;100896.16;5068996;28;20067;-69
2023/03/12 04:00:44;;;;;;;10.27;5.00;;;;;;;9.94;50.56;100897.56;5065276;28;20468;-69
2023/03/12 04:03:09;;;;;;;11.20;3.93;;;;;;;10.30;48.62;100888.59;5053088;28;20033;-71
2023/03/12 04:05:34;;;;;;;9.80;4.40;;;;;;;10.08;48.97;100881.78;5066379;28;20025;-69
2023/03/12 04:08:02;;;;;;;12.40;4.40;;;;;;;10.18;49.20;100883.47;5067558;28;20026;-70
2023/03/12 04:10:28;;;;;;;11.23;3.83;;;;;;;9.86;50.56;100889.75;5067244;28;20034;-69
2023/03/12 04:12:54;;;;;;;16.57;4.77;;;;;;;9.13;52.10;100897.06;5067276;28;20036;-69
2023/03/12 04:15:19;;;;;;;8.80;4.07;;;;;;;10.05;50.27;100884.41;5065571;28;20376;-70
2023/03/12 04:17:45;;;;;;;11.27;3.87;;;;;;;10.62;48.46;100884.84;5064940;28;20039;-69
2023/03/12 04:20:11;;;;;;;5.60;3.87;;;;;;;10.86;47.67;100883.72;5068454;28;20032;-69
2023/03/12 04:22:36;;;;;;;9.43;4.40;;;;;;;10.36;48.65;100877.25;5067647;28;20032;-70
2023/03/12 04:25:03;;;;;;;11.33;3.77;;;;;;;9.17;53.93;100883.13;5065346;28;20071;-71
2023/03/12 04:27:28;;;;;;;9.03;4.10;;;;;;;10.12;51.82;100875.66;5067082;28;20117;-71
2023/03/12 04:29:53;;;;;;;9.77;4.33;;;;;;;10.44;51.17;100871.94;5066483;28;20024;-71
2023/03/12 04:32:19;;;;;;;8.97;5.00;;;;;;;9.81;52.78;100865.44;5068372;28;20550;-70
2023/03/12 04:34:44;;;;;;;13.47;5.00;;;;;;;8.38;61.33;100869.34;5066691;28;20138;-70
2023/03/12 04:37:12;;;;;;;12.20;4.87;;;;;;;8.84;63.53;100858.88;5063749;28;20024;-71
2023/03/12 04:39:38;;;;;;;14.73;5.20;;;;;;;8.31;68.77;100858.94;5067145;28;20445;-70
2023/03/12 04:42:04;;;;;;;9.20;5.57;;;;;;;9.24;62.63;100856.13;5067442;28;20064;-70
2023/03/12 04:44:30;;;;;;;15.67;6.27;;;;;;;9.46;62.58;100829.97;5065159;28;20067;-70
2023/03/12 04:46:55;;;;;;;11.70;6.00;;;;;;;9.78;60.99;100826.28;5052763;28;20041;-70
2023/03/12 04:49:21;;;;;;;15.27;7.60;;;;;;;10.02;61.98;100815.66;5067398;28;20055;-71
2023/03/12 04:51:46;;;;;;;19.67;6.50;;;;;;;8.91;67.55;100818.88;5064553;28;20040;-70
2023/03/12 04:54:11;;;;;;;14.13;6.67;;;;;;;9.82;63.78;100810.59;5068815;28;20090;-70
2023/03/12 04:56:37;;;;;;;16.97;6.43;;;;;;;9.17;66.79;100810.09;5066223;28;21060;-70
2023/03/12 04:59:03;;;;;;;18.27;6.93;;;;;;;9.51;66.79;100807.31;5066785;28;20115;-70
2023/03/12 05:01:31;;;;;;;15.90;6.67;;;;;;;9.32;67.38;100804.81;5068670;28;20033;-70
2023/03/12 05:03:57;;;;;;;15.43;6.60;;;;;;;9.84;64.48;100807.97;5066896;28;20503;-70
2023/03/12 05:06:23;;;;;;;16.83;7.60;;;;;;;9.87;63.38;100805.34;5064949;28;20091;-70
2023/03/12 05:08:48;;;;;;;17.00;7.93;;;;;;;9.79;60.49;100814.97;5066010;28;20036;-70
2023/03/12 05:11:15;;;;;;;17.90;7.37;;;;;;;10.20;61.54;100811.16;5067337;28;20421;-70
2023/03/12 05:13:40;;;;;;;20.77;7.90;;;;;;;9.95;63.05;100821.81;5066624;28;20056;-70
2023/03/12 05:16:06;;;;;;;18.73;7.17;;;;;;;10.10;61.05;100825.19;5065623;28;20507;-70
2023/03/12 05:18:32;;;;;;;21.97;8.93;;;;;;;10.08;62.32;100811.25;5065722;28;20028;-70
2023/03/12 05:21:02;;;;;;;17.83;8.37;;;;;;;10.35;58.53;100811.03;5065221;28;20365;-70
2023/03/12 05:23:29;;;;;;;13.33;8.27;;;;;;;9.98;62.14;100810.47;5066930;28;20062;-70
2023/03/12 05:25:55;;;;;;;14.13;7.83;;;;;;;9.64;64.41;100809.00;5067247;28;20046;-70
2023/03/12 05:28:26;;;;;;;19.33;8.10;;;;;;;9.67;65.05;100808.06;5064014;28;20024;-70
2023/03/12 05:30:52;;;;;;;14.90;8.30;;;;;;;9.97;64.17;100809.63;5066217;28;20488;-70
2023/03/12 05:33:18;;;;;;;19.03;8.13;;;;;;;9.85;65.33;100820.16;5067124;28;20078;-70
2023/03/12 05:35:43;;;;;;;20.30;8.53;;;;;;;9.66;65.41;100819.41;5068377;28;20032;-70
2023/03/12 05:38:08;;;;;;;16.97;8.83;;;;;;;9.57;66.50;100814.25;5067478;28;20063;-70
2023/03/12 05:40:34;;;;;;;17.20;9.17;;;;;;;9.86;64.58;100806.19;5070216;28;20032;-70
2023/03/12 05:42:59;;;;;;;20.03;8.60;;;;;;;9.32;67.53;100811.78;5071230;28;20059;-70
2023/03/12 05:45:24;;;;;;;16.43;9.33;;;;;;;9.68;67.12;100815.03;5070653;28;20052;-70
2023/03/12 05:47:50;;;;;;;20.43;9.50;;;;;;;9.43;66.49;100814.34;5069532;28;20051;-70
2023/03/12 05:50:15;;;;;;;15.17;8.97;;;;;;;9.54;67.33;100799.47;5082990;28;20113;-70
2023/03/12 05:52:41;;;;;;;19.60;9.90;;;;;;;9.27;68.58;100790.94;5069401;28;20103;-70
2023/03/12 05:55:07;;;;;;;17.30;9.50;;;;;;;9.39;70.87;100789.13;5068238;28;20047;-70
2023/03/12 05:57:32;;;;;;;18.33;9.20;;;;;;;10.39;65.46;100784.91;5070542;28;20484;-70
2023/03/12 05:59:57;;;;;;;20.27;9.07;;;;;;;9.40;71.13;100783.03;5082677;28;20404;-70
2023/03/12 06:02:23;;;;;;;17.83;9.87;;;;;;;9.21;74.67;100796.16;5059062;28;20029;-70
2023/03/12 06:04:48;;;;;;;23.47;11.90;;;;;;;8.80;76.60;100794.59;5049463;28;20423;-70
2023/03/12 06:07:13;;;;;;;23.10;10.90;;;;;;;9.72;72.34;100798.47;5050292;28;20044;-70
2023/03/12 06:09:39;;;;;;;20.17;10.03;;;;;;;9.70;74.15;100797.63;5065433;28;20024;-70
2023/03/12 06:12:04;;;;;;;23.13;10.03;;;;;;;9.68;71.41;100789.81;5064963;28;20469;-70
2023/03/12 06:14:30;;;;;;;21.33;10.83;;;;;;;10.04;70.27;100783.44;5082115;28;20025;-70
2023/03/12 06:16:55;;;;;;;21.37;10.80;;;;;;;10.05;68.06;100785.19;5048778;28;20122;-70
2023/03/12 06:19:20;;;;;;;17.00;10.90;;;;;;;9.75;71.69;100789.75;5064220;28;20032;-70
2023/03/12 06:21:46;;;;;;;25.37;11.30;;;;;;;9.24;75.81;100785.72;5069692;28;20066;-69
2023/03/12 06:24:11;;;;;;;24.90;11.53;;;;;;;9.08;77.09;100778.84;5067661;28;20032;-69
2023/03/12 06:26:37;;;;;;;27.20;12.80;;;;;;;9.28;76.85;100777.00;5069999;28;20380;-69
2023/03/12 06:29:02;;;;;;;26.30;12.70;;;;;;;9.63;75.11;100768.09;5069546;28;20032;-69
2023/03/12 06:31:28;;;;;;;23.10;13.17;;;;;;;9.60;74.25;100770.75;5067229;28;20495;-69
2023/03/12 06:33:53;;;;;;;27.87;12.50;;;;;;;9.29;77.53;100751.81;5068579;28;20127;-69
2023/03/12 06:36:19;;;;;;;26.67;13.53;;;;;;;9.90;73.00;100750.47;5069657;28;20017;-70
2023/03/12 06:38:44;;;;;;;23.97;14.20;;;;;;;9.97;71.59;100736.50;5068562;28;20413;-71
2023/03/12 06:41:12;;;;;;;21.10;13.90;;;;;;;9.61;72.54;100741.13;5068495;28;20031;-69
2023/03/12 06:43:39;;;;;;;27.43;13.37;;;;;;;9.89;75.02;100740.03;5067820;28;20024;-69
2023/03/12 06:46:06;;;;;;;25.80;14.57;;;;;;;9.78;74.73;100745.34;5067002;28;20066;-69
2023/03/12 06:48:35;;;;;;;23.57;13.40;;;;;;;9.53;78.93;100745.53;5068737;28;20069;-69
2023/03/12 06:51:03;;;;;;;24.23;14.13;;;;;;;9.50;78.37;100745.56;5066826;28;20028;-70
2023/03/12 06:53:30;;;;;;;21.70;13.97;;;;;;;9.24;80.81;100743.13;5049529;28;20029;-70
2023/03/12 06:55:55;;;;;;;25.27;14.13;;;;;;;9.16;81.04;100748.38;5066225;28;20060;-69
2023/03/12 06:58:20;;;;;;;26.40;14.73;;;;;;;9.97;77.02;100740.84;5069804;28;20492;-70
2023/03/12 07:00:46;;;;;;;26.70;15.07;;;;;;;9.86;76.08;100743.53;5066635;28;20024;-70
2023/03/12 07:03:11;;;;;;;30.37;15.33;;;;;;;9.58;78.85;100743.78;5067634;28;20226;-69
2023/03/12 07:05:36;;;;;;;30.30;14.40;;;;;;;9.47;79.15;100745.59;5069499;28;20077;-69
2023/03/12 07:08:02;;;;;;;29.67;15.80;;;;;;;9.33;82.09;100754.38;5068301;28;20028;-69
2023/03/12 07:10:28;;;;;;;26.03;15.87;;;;;;;10.24;75.98;100744.09;5069570;28;20027;-69
2023/03/12 07:12:55;;;;;;;28.40;16.57;;;;;;;9.42;78.68;100757.81;5068465;28;20058;-69
2023/03/12 07:15:20;;;;;;;31.83;16.87;;;;;;;9.73;78.99;100752.38;5063359;28;20033;-70
2023/03/12 07:17:46;;;;;;;29.87;17.27;;;;;;;10.51;74.58;100753.44;5064852;28;20054;-69
2023/03/12 07:20:12;;;;;;;28.43;16.80;;;;;;;9.50;79.92;100756.84;5067504;28;20017;-69
2023/03/12 07:22:37;;;;;;;29.87;17.17;;;;;;;9.34;77.81;100761.34;5066507;28;20077;-70
2023/03/12 07:25:03;;;;;;;37.77;18.87;;;;;;;10.21;75.91;100755.44;5062472;28;20036;-70
2023/03/12 07:27:28;;;;;;;34.53;18.13;;;;;;;9.43;79.23;100760.41;5049262;28;20090;-69
2023/03/12 07:29:54;;;;;;;32.77;17.73;;;;;;;10.00;80.03;100757.38;5067703;28;20586;-70
2023/03/12 07:32:19;;;;;;;34.50;19.53;;;;;;;10.60;76.22;100748.06;5066460;28;20594;-70
2023/03/12 07:34:45;;;;;;;32.17;18.40;;;;;;;10.40;73.75;100740.47;5068377;28;20043;-69
2023/03/12 07:37:10;;;;;;;34.63;18.77;;;;;;;10.14;76.38;100759.00;5069810;28;20103;-69
2023/03/12 07:39:36;;;;;;;36.10;18.83;;;;;;;9.55;79.14;100759.47;5067651;28;20014;-69
2023/03/12 07:42:01;;;;;;;37.13;19.60;;;;;;;10.94;73.96;100758.13;5065839;28;20082;-69
2023/03/12 07:44:26;;;;;;;41.10;20.63;;;;;;;10.74;74.96;100762.75;5066546;28;20107;-69
2023/03/12 07:46:52;;;;;;;42.53;22.17;;;;;;;10.98;71.06;100762.44;5065776;28;20052;-70
2023/03/12 07:49:18;;;;;;;42.30;21.60;;;;;;;10.91;72.80;100758.19;5066500;28;20849;-70
2023/03/12 07:51:44;;;;;;;38.53;19.50;;;;;;;11.02;71.63;100761.50;5067358;28;20111;-69
2023/03/12 07:54:09;;;;;;;37.93;21.47;;;;;;;10.79;72.32;100769.63;5064731;28;20198;-70
2023/03/12 07:56:35;;;;;;;39.30;20.07;;;;;;;10.83;72.16;100775.72;5067048;28;20032;-69
2023/03/12 07:59:00;;;;;;;41.73;19.07;;;;;;;11.23;73.96;100763.88;5067274;28;20105;-70
2023/03/12 08:01:30;;;;;;;37.80;19.50;;;;;;;11.19;71.28;100774.34;5066522;28;20359;-69
2023/03/12 08:03:57;;;;;;;37.87;19.10;;;;;;;10.95;73.07;100775.56;5065884;28;20056;-70
2023/03/12 08:06:23;;;;;;;39.53;19.67;;;;;;;11.69;70.31;100763.16;5067928;28;20028;-69
2023/03/12 08:08:49;;;;;;;41.23;20.57;;;;;;;11.07;70.56;100764.06;5065376;28;20029;-70
2023/03/12 08:11:14;;;;;;;36.80;19.33;;;;;;;11.33;72.14;100760.22;5047866;28;20401;-69
2023/03/12 08:13:40;;;;;;;38.90;20.50;;;;;;;11.49;67.55;100766.13;5053141;28;20128;-69
2023/03/12 08:16:05;;;;;;;35.70;19.67;;;;;;;10.73;75.49;100774.06;5061658;28;20112;-68
2023/03/12 08:18:31;;;;;;;39.90;20.07;;;;;;;11.95;70.67;100769.78;5066047;28;20059;-70
2023/03/12 08:20:56;;;;;;;42.23;21.60;;;;;;;12.17;68.50;100776.41;5065187;28;20169;-69
2023/03/12 08:23:22;;;;;;;42.10;21.33;;;;;;;11.97;67.27;100783.72;5064947;28;20031;-69
2023/03/12 08:25:48;;;;;;;44.57;21.03;;;;;;;12.12;66.93;100787.84;5064887;28;20032;-69
2023/03/12 08:28:15;;;;;;;45.00;22.40;;;;;;;12.54;68.81;100782.72;5055863;28;20385;-69
2023/03/12 08:30:48;;;;;;;55.30;22.93;;;;;;;12.50;67.64;100783.66;5061334;28;20049;-69
2023/03/12 08:33:13;;;;;;;51.05;24.77;;;;;;;12.51;67.29;100790.63;5060886;28;20681;-69
2023/03/12 08:35:38;;;;;;;46.40;25.60;;;;;;;12.57;67.23;100785.28;5065741;28;20028;-69
2023/03/12 08:38:04;;;;;;;58.27;25.77;;;;;;;13.54;64.85;100787.66;5066257;28;20501;-70
2023/03/12 08:40:29;;;;;;;57.33;26.07;;;;;;;12.53;71.44;100794.13;5068771;28;20025;-70
2023/03/12 08:42:55;;;;;;;55.47;27.07;;;;;;;12.32;72.28;100800.59;5064930;28;20036;-70
2023/03/12 08:45:20;;;;;;;61.13;27.50;;;;;;;12.58;72.52;100797.50;5063159;28;20043;-70
2023/03/12 08:47:45;;;;;;;58.60;27.93;;;;;;;12.88;70.52;100810.91;5056967;28;20047;-70
2023/03/12 08:50:13;;;;;;;70.60;29.27;;;;;;;12.07;75.76;100810.63;5065750;28;20408;-70
2023/03/12 08:52:38;;;;;;;67.97;28.23;;;;;;;12.51;73.35;100812.47;5059107;28;20035;-69
2023/03/12 08:55:05;;;;;;;62.43;28.67;;;;;;;12.56;74.65;100800.13;5064892;28;20046;-70
2023/03/12 08:57:30;;;;;;;65.47;29.23;;;;;;;13.96;69.06;100787.53;5065926;28;20060;-70
2023/03/12 08:59:56;;;;;;;65.40;28.73;;;;;;;13.63;68.63;100790.09;5066899;28;20110;-71
2023/03/12 09:02:21;;;;;;;83.93;31.17;;;;;;;14.40;63.66;100780.28;5064278;28;20046;-70
2023/03/12 09:04:47;;;;;;;69.87;31.43;;;;;;;14.48;64.82;100780.06;5060869;28;20048;-69
2023/03/12 09:07:13;;;;;;;72.87;31.67;;;;;;;14.52;64.28;100775.56;5063748;28;20032;-70
2023/03/12 09:09:38;;;;;;;73.27;31.57;;;;;;;14.00;67.87;100783.94;5055185;28;20029;-70
2023/03/12 09:12:04;;;;;;;66.00;27.07;;;;;;;14.07;67.89;100785.50;5068601;28;20043;-70
2023/03/12 09:14:30;;;;;;;62.13;29.13;;;;;;;14.48;67.27;100784.44;5070462;28;20024;-70
2023/03/12 09:16:56;;;;;;;65.20;28.13;;;;;;;14.86;65.84;100790.47;5071326;28;20408;-70
2023/03/12 09:19:21;;;;;;;67.47;29.57;;;;;;;14.42;67.69;100790.75;5070447;28;20468;-70
2023/03/12 09:21:47;;;;;;;52.63;26.73;;;;;;;14.15;69.73;100787.06;5070536;28;20029;-70
2023/03/12 09:24:12;;;;;;;57.80;26.17;;;;;;;14.67;69.02;100796.25;5064948;28;20464;-70
2023/03/12 09:26:37;;;;;;;54.20;26.63;;;;;;;14.56;71.75;100798.25;5066634;28;20561;-70
2023/03/12 09:29:03;;;;;;;55.33;25.10;;;;;;;14.12;74.16;100795.88;5070710;28;20036;-70
2023/03/12 09:31:28;;;;;;;50.33;23.87;;;;;;;14.93;70.50;100797.25;5070903;28;20028;-70
2023/03/12 09:33:53;;;;;;;52.43;22.27;;;;;;;14.34;71.90;100798.84;5065503;28;20054;-69
2023/03/12 09:36:19;;;;;;;52.77;21.30;;;;;;;14.82;69.75;100799.34;5070181;28;20028;-70
2023/03/12 09:38:44;;;;;;;47.77;21.50;;;;;;;14.34;72.61;100804.13;5052214;28;20507;-70
2023/03/12 09:41:21;;;;;;;47.33;21.23;;;;;;;14.81;70.76;100802.88;5064737;28;20103;-70
2023/03/12 09:44:15;;;;;;;46.10;19.83;;;;;;;15.14;71.32;100800.19;5056277;28;20681;-69
2023/03/12 09:47:08;;;;;;;45.37;19.10;;;;;;;15.51;70.39;100799.06;5064939;28;20083;-69
2023/03/12 09:49:36;;;;;;;45.28;18.52;;;;;;;15.38;71.21;100803.84;5061940;28;20446;-69
2023/03/12 09:52:15;;;;;;;40.13;16.67;;;;;;;15.99;66.35;100814.28;5081102;28;20060;-70
2023/03/12 09:54:45;;;;;;;43.07;15.57;;;;;;;15.33;71.02;100816.28;5055004;28;20068;-69
2023/03/12 09:57:16;;;;;;;41.67;15.53;;;;;;;15.65;69.52;100804.78;5067168;28;20039;-70
2023/03/12 09:59:41;;;;;;;57.27;13.57;;;;;;;16.09;69.03;100807.78;5070152;28;21240;-69
2023/03/12 10:02:25;;;;;;;34.43;11.97;;;;;;;15.51;71.28;100799.06;5064194;28;20020;-69
2023/03/12 10:05:05;;;;;;;31.00;9.93;;;;;;;15.02;73.16;100804.06;5069272;28;20028;-70
2023/03/12 10:07:35;;;;;;;40.43;8.73;;;;;;;14.90;73.87;100818.41;5068204;28;20074;-70
2023/03/12 10:10:22;;;;;;;42.67;8.40;;;;;;;15.59;71.81;100792.66;5069221;28;20025;-69
2023/03/12 10:13:24;;;;;;;31.77;8.20;;;;;;;15.48;73.85;100810.56;5070468;28;20553;-69
2023/03/12 10:16:09;;;;;;;37.38;9.25;;;;;;;16.18;71.50;100806.59;5060745;28;20883;-70
2023/03/12 10:18:57;;;;;;;33.33;7.50;;;;;;;14.32;79.86;100824.31;5068874;28;20040;-70
2023/03/12 10:21:34;;;;;;;39.60;7.43;;;;;;;14.61;77.96;100812.16;5070877;28;20029;-70
2023/03/12 10:24:15;;;;;;;39.47;6.60;;;;;;;14.67;78.06;100816.41;5068940;28;20502;-69
2023/03/12 10:26:48;;;;;;;38.07;7.43;;;;;;;14.83;74.84;100819.50;5054564;28;20115;-70
2023/03/12 10:29:21;;;;;;;36.15;7.30;;;;;;;14.17;79.29;100822.06;5064062;28;20165;-70
2023/03/12 10:31:50;;;;;;;40.57;7.70;;;;;;;14.39;79.01;100812.72;5067783;28;20557;-70
2023/03/12 10:34:36;;;;;;;41.47;7.53;;;;;;;16.33;71.38;100810.47;5068610;28;20482;-70
2023/03/12 10:37:39;;;;;;;40.97;6.90;;;;;;;16.25;71.69;100812.53;5073361;28;20484;-70
2023/03/12 10:40:05;;;;;;;29.37;5.67;;;;;;;16.10;66.83;100817.41;5068062;28;20503;-70
2023/03/12 10:42:31;;;;;;;49.13;6.63;;;;;;;16.19;69.11;100816.22;5068477;28;20390;-70
2023/03/12 10:45:21;;;;;;;35.30;6.10;;;;;;;14.86;75.23;100819.41;5066521;28;20085;-70
2023/03/12 10:47:56;;;;;;;55.33;9.90;;;;;;;15.40;72.46;100816.06;5079418;28;20056;-71
2023/03/12 10:50:34;;;;;;;34.13;6.47;;;;;;;15.86;71.82;100815.56;5066819;28;20032;-71
2023/03/12 10:53:17;;;;;;;37.70;7.03;;;;;;;16.24;72.01;100826.63;5067572;28;20056;-70
2023/03/12 10:55:45;;;;;;;37.15;6.78;;;;;;;16.36;69.26;100820.94;5067578;28;20484;-70
2023/03/12 10:58:22;;;;;;;40.03;6.20;;;;;;;16.02;70.55;100819.44;5056480;28;20040;-70
2023/03/12 11:00:57;;;;;;;35.23;5.13;;;;;;;15.99;68.45;100831.84;5066316;28;20036;-69
2023/03/12 11:03:22;;;;;;;32.60;6.97;;;;;;;15.06;76.02;100850.44;5067399;28;20032;-69
2023/03/12 11:05:54;;;;;;;32.17;6.67;;;;;;;15.71;71.11;100838.81;5067325;28;20179;-69
2023/03/12 11:08:32;;;;;;;46.60;5.85;;;;;;;14.91;76.79;100851.72;5065814;28;20021;-69
2023/03/12 11:10:59;;;;;;;37.47;6.17;;;;;;;15.51;73.17;100854.38;5058827;28;20028;-69
2023/03/12 11:13:34;;;;;;;29.40;5.10;;;;;;;15.17;76.93;100844.88;5066609;28;20032;-69
2023/03/12 11:16:20;;;;;;;28.63;6.33;;;;;;;15.95;70.49;100836.38;5060895;28;20055;-69
2023/03/12 11:18:58;;;;;;;33.07;6.00;;;;;;;15.96;71.93;100843.34;5066542;28;20044;-69
2023/03/12 11:21:24;;;;;;;40.13;6.00;;;;;;;16.76;65.04;100837.13;5064312;28;20024;-68
2023/03/12 11:23:55;;;;;;;40.27;4.67;;;;;;;16.03;69.41;100842.25;5066668;28;20540;-69